Terminal Aerodrome Forecast
Issued by NWS Knoxville/Tri Cities, TN

Home | Current Version | Previous Version | Text Only | Print | Product List | Glossary On
Versions: 1 2 3 4 5 6 7 8 9 10 11 12 13 14 15 16 17 18 19 20 21 22 23 24 25
000
FTUS44 KMRX 301739
TAFTRI
TAF
KTRI 301739Z 3018/3118 18004KT P6SM SCT050 BKN150
     FM302200 21003KT P6SM SCT060 SCT100 BKN200
     FM310600 00000KT P6SM OVC100
     FM311300 VRB03KT P6SM BKN120=

USA.gov is the U.S. government's official web portal to all federal, state and local government web resources and services.